createdAt,value
2023-03-05T00:00:49.688Z,12.85
2023-03-05T00:02:21.552Z,6.63
2023-03-05T00:03:57.306Z,7.53
2023-03-05T00:05:29.475Z,5.90
2023-03-05T00:07:01.189Z,12.30
2023-03-05T00:08:33.721Z,8.00
2023-03-05T00:10:09.271Z,9.73
2023-03-05T00:11:41.186Z,12.80
2023-03-05T00:13:12.943Z,10.63
2023-03-05T00:14:44.672Z,10.20
2023-03-05T00:16:16.608Z,10.97
2023-03-05T00:17:48.336Z,10.60
2023-03-05T00:19:20.030Z,14.30
2023-03-05T00:20:51.713Z,7.87
2023-03-05T00:22:23.406Z,7.13
2023-03-05T00:23:55.961Z,7.60
2023-03-05T00:25:27.749Z,7.37
2023-03-05T00:26:59.389Z,8.83
2023-03-05T00:28:31.033Z,7.60
2023-03-05T00:30:02.762Z,8.60
2023-03-05T00:31:37.206Z,9.53
2023-03-05T00:33:12.502Z,7.80
2023-03-05T00:34:44.316Z,10.57
2023-03-05T00:36:16.172Z,6.23
2023-03-05T00:37:48.080Z,9.90
2023-03-05T00:39:21.153Z,13.90
2023-03-05T00:40:52.818Z,5.80
2023-03-05T00:42:24.639Z,11.00
2023-03-05T00:43:56.454Z,5.10
2023-03-05T00:45:28.205Z,10.43
2023-03-05T00:46:59.937Z,8.70
2023-03-05T00:48:31.640Z,8.33
2023-03-05T00:50:04.695Z,11.30
2023-03-05T00:51:37.580Z,11.17
2023-03-05T00:53:09.285Z,6.20
2023-03-05T00:54:41.062Z,10.77
2023-03-05T00:56:12.777Z,6.43
2023-03-05T00:57:44.665Z,8.80
2023-03-05T00:59:16.550Z,9.80
2023-03-05T01:00:50.517Z,9.63
2023-03-05T01:02:22.370Z,12.87
2023-03-05T01:09:40.450Z,9.00
2023-03-05T01:11:12.641Z,9.17
2023-03-05T01:12:44.394Z,6.00
2023-03-05T07:24:12.452Z,13.13
2023-03-05T07:25:44.274Z,14.20
2023-03-05T07:27:16.003Z,16.13
2023-03-05T07:28:48.202Z,10.43
2023-03-05T08:57:44.006Z,4.47
2023-03-05T08:59:16.326Z,6.47
2023-03-05T09:00:48.065Z,6.50
2023-03-05T09:02:19.739Z,9.30
2023-03-05T09:03:51.651Z,9.50
2023-03-05T09:05:23.357Z,7.53
2023-03-05T09:06:55.317Z,5.43
2023-03-05T09:08:27.353Z,7.83
2023-03-05T09:09:59.088Z,9.20
2023-03-05T09:17:44.735Z,6.40
2023-03-05T09:19:16.474Z,6.00
2023-03-05T09:20:48.203Z,4.67
2023-03-05T09:22:19.980Z,8.73
2023-03-05T09:23:52.133Z,7.70
2023-03-05T09:25:23.869Z,8.33
2023-03-05T09:30:01.171Z,10.03
2023-03-05T09:31:33.140Z,6.80
2023-03-05T09:33:05.312Z,6.77
2023-03-05T09:34:37.422Z,7.43
2023-03-05T09:36:24.639Z,10.53
2023-03-05T09:37:56.496Z,7.47
2023-03-05T09:39:28.196Z,7.23
2023-03-05T09:41:07.821Z,9.50
2023-03-05T09:42:54.405Z,11.27
2023-03-05T09:44:35.480Z,10.17
2023-03-05T09:46:29.101Z,8.30
2023-03-05T09:48:33.940Z,10.77
2023-03-05T09:50:33.187Z,24.70
2023-03-05T09:52:16.493Z,10.83
2023-03-05T09:53:56.218Z,7.50
2023-03-05T09:55:40.300Z,6.37
2023-03-05T09:57:28.777Z,5.70
2023-03-05T09:59:21.761Z,20.10
2023-03-05T10:01:00.429Z,8.07
2023-03-05T10:02:36.622Z,5.67
2023-03-05T10:04:40.366Z,7.90
2023-03-05T10:06:20.530Z,9.50
2023-03-05T10:07:57.518Z,9.57
2023-03-05T10:09:38.032Z,11.87
2023-03-05T10:11:33.066Z,13.57
2023-03-05T10:13:16.385Z,6.17
2023-03-05T10:14:49.265Z,14.60
2023-03-05T10:17:02.758Z,11.90
2023-03-05T10:18:57.483Z,13.63
2023-03-05T10:20:51.149Z,9.87
2023-03-05T10:22:28.169Z,7.97
2023-03-05T10:24:35.903Z,6.70
2023-03-05T10:26:16.211Z,5.33
2023-03-05T10:27:53.798Z,5.60
2023-03-05T10:29:28.934Z,6.03
2023-03-05T10:31:42.320Z,7.50
2023-03-05T10:34:05.266Z,11.30
2023-03-05T10:35:51.750Z,5.97
2023-03-05T10:37:47.137Z,7.13
2023-03-05T10:39:37.527Z,12.13
2023-03-05T10:41:28.405Z,10.50
2023-03-05T10:43:31.801Z,15.40
2023-03-05T10:45:22.529Z,16.73
2023-03-05T10:46:58.020Z,11.20
2023-03-05T10:48:49.357Z,12.90
2023-03-05T10:50:25.463Z,9.43
2023-03-05T10:52:18.568Z,8.93
2023-03-05T10:54:01.642Z,6.03
2023-03-05T10:55:33.485Z,4.43
2023-03-05T10:57:20.523Z,4.47
2023-03-05T10:58:52.809Z,4.20
2023-03-05T11:00:27.833Z,5.37
2023-03-05T11:02:08.514Z,4.50
2023-03-05T11:03:58.266Z,3.63
2023-03-05T11:05:38.943Z,3.50
2023-03-05T11:07:17.015Z,5.33
2023-03-05T11:08:48.784Z,3.10
2023-03-05T11:10:21.446Z,2.47
2023-03-05T11:12:14.242Z,2.10
2023-03-05T11:13:53.628Z,2.03
2023-03-05T11:15:29.247Z,4.00
2023-03-05T11:17:03.798Z,1.80
2023-03-05T11:18:35.694Z,4.87
2023-03-05T11:20:31.707Z,2.60
2023-03-05T11:22:07.946Z,3.80
2023-03-05T11:23:39.676Z,2.37
2023-03-05T11:25:12.358Z,7.40
2023-03-05T11:26:51.087Z,27.80
2023-03-05T11:28:32.955Z,15.77
2023-03-05T11:30:21.394Z,11.57
2023-03-05T11:35:39.973Z,6.63
2023-03-05T11:37:30.467Z,5.37
2023-03-05T11:39:08.003Z,9.40
2023-03-05T11:40:39.828Z,3.63
2023-03-05T11:42:24.620Z,5.93
2023-03-05T11:43:58.897Z,4.40
2023-03-05T11:45:32.746Z,5.57
2023-03-05T11:47:25.594Z,4.17
2023-03-05T11:48:58.609Z,4.87
2023-03-05T11:50:32.327Z,5.80
2023-03-05T11:52:18.165Z,3.67
2023-03-05T11:53:55.517Z,8.43
2023-03-05T11:55:46.817Z,9.43
2023-03-05T11:57:21.250Z,6.90
2023-03-05T11:59:18.114Z,7.80
2023-03-05T12:00:50.196Z,6.30
2023-03-05T12:02:27.626Z,6.47
2023-03-05T12:04:00.420Z,6.87
2023-03-05T12:05:33.520Z,4.37
2023-03-05T12:07:05.526Z,5.40
2023-03-05T12:08:41.352Z,5.97
2023-03-05T12:10:22.069Z,9.07
2023-03-05T12:12:41.509Z,5.70
2023-03-05T12:14:30.407Z,5.30
2023-03-05T12:16:04.755Z,10.10
2023-03-05T12:18:20.135Z,5.00
2023-03-05T12:20:22.448Z,9.77
2023-03-05T12:21:55.003Z,6.17
2023-03-05T12:23:29.384Z,5.60
2023-03-05T12:25:26.699Z,8.00
2023-03-05T12:27:03.660Z,6.83
2023-03-05T12:28:35.332Z,5.90
2023-03-05T12:30:49.778Z,5.50
2023-03-05T12:32:33.797Z,4.93
2023-03-05T12:34:37.620Z,6.40
2023-03-05T12:36:21.605Z,5.47
2023-03-05T12:37:53.364Z,6.00
2023-03-05T12:39:40.405Z,9.80
2023-03-05T12:41:25.413Z,9.13
2023-03-05T12:43:24.339Z,4.90
2023-03-05T12:45:19.860Z,4.03
2023-03-05T12:47:15.715Z,5.60
2023-03-05T12:48:47.491Z,9.00
2023-03-05T12:50:28.339Z,5.00
2023-03-05T12:52:03.159Z,6.57
2023-03-05T12:53:34.931Z,5.30
2023-03-05T12:55:28.271Z,7.43
2023-03-05T12:57:29.497Z,4.87
2023-03-05T12:59:04.170Z,3.80
2023-03-05T13:00:49.479Z,3.20
2023-03-05T13:02:26.291Z,2.37
2023-03-05T13:04:01.988Z,3.07
2023-03-05T13:05:37.289Z,3.03
2023-03-05T13:07:16.252Z,2.57
2023-03-05T13:09:07.416Z,3.90
2023-03-05T13:10:40.280Z,2.20
2023-03-05T13:12:14.051Z,3.23
2023-03-05T13:13:47.838Z,1.93
2023-03-05T13:15:20.151Z,1.90
2023-03-05T13:16:51.913Z,5.07
2023-03-05T13:20:46.080Z,2.63
2023-03-05T13:22:17.795Z,3.00
2023-03-05T13:24:01.133Z,2.90
2023-03-05T13:25:32.862Z,4.83
2023-03-05T13:27:29.930Z,3.10
2023-03-05T13:29:12.084Z,3.30
2023-03-05T13:31:11.694Z,2.40
2023-03-05T13:32:43.571Z,5.17
2023-03-05T13:34:48.265Z,20.93
2023-03-05T13:36:25.122Z,27.80
2023-03-05T13:37:57.862Z,26.90
2023-03-05T13:39:42.941Z,18.40
2023-03-05T13:41:14.850Z,11.60
2023-03-05T13:42:46.635Z,10.27
2023-03-05T13:44:21.968Z,6.20
2023-03-05T13:45:56.556Z,5.73
2023-03-05T13:47:31.955Z,6.10
2023-03-05T13:51:29.427Z,5.67
2023-03-05T13:53:19.070Z,6.40
2023-03-05T13:54:50.776Z,5.73
2023-03-05T13:56:22.596Z,4.47
2023-03-05T14:00:38.834Z,7.67
2023-03-05T14:02:19.766Z,6.90
2023-03-05T14:03:53.968Z,6.70
2023-03-05T14:05:26.090Z,7.33
2023-03-05T14:06:59.653Z,5.70
2023-03-05T14:08:31.533Z,4.17
2023-03-05T14:10:05.512Z,4.40
2023-03-05T14:11:37.299Z,5.80
2023-03-05T14:13:17.102Z,5.23
2023-03-05T14:14:50.156Z,4.07
2023-03-05T14:23:37.299Z,3.27
2023-03-05T14:25:29.759Z,9.23
2023-03-05T14:27:08.655Z,3.10
2023-03-05T14:28:40.527Z,5.23
2023-03-05T14:30:19.713Z,4.53
2023-03-05T14:32:17.176Z,4.20
2023-03-05T14:33:50.317Z,3.73
2023-03-05T14:35:25.205Z,4.03
2023-03-05T14:37:00.584Z,4.13
2023-03-05T14:38:34.190Z,3.57
2023-03-05T14:40:08.348Z,4.17
2023-03-05T14:44:14.049Z,6.17
2023-03-05T14:45:51.864Z,5.20
2023-03-05T14:47:26.445Z,2.97
2023-03-05T14:48:58.224Z,2.80
2023-03-05T14:50:38.233Z,4.63
2023-03-05T14:52:15.782Z,4.17
2023-03-05T14:53:50.824Z,4.17
2023-03-05T14:55:30.148Z,3.07
2023-03-05T14:57:01.946Z,2.70
2023-03-05T14:58:35.388Z,3.50
2023-03-05T15:00:22.664Z,3.37
2023-03-05T15:01:54.377Z,5.13
2023-03-05T15:03:27.823Z,3.13
2023-03-05T15:04:59.548Z,4.40
2023-03-05T15:06:36.067Z,6.83
2023-03-05T15:08:15.311Z,3.70
2023-03-05T15:15:36.194Z,4.37
2023-03-05T15:17:14.832Z,2.93
2023-03-05T15:20:57.352Z,3.60
2023-03-05T15:22:29.560Z,4.90
2023-03-05T15:24:01.260Z,4.10
2023-03-05T15:25:35.204Z,4.13
2023-03-05T15:27:06.987Z,3.53
2023-03-05T15:28:40.034Z,9.23
2023-03-05T15:30:31.890Z,8.80
2023-03-05T15:32:05.433Z,6.13
2023-03-05T15:33:37.393Z,4.70
2023-03-05T15:35:09.852Z,5.57
2023-03-05T15:36:41.526Z,5.40
2023-03-05T15:38:13.425Z,9.50
2023-03-05T15:39:45.480Z,6.23
2023-03-05T15:41:17.616Z,5.77
2023-03-05T15:42:49.760Z,5.40
2023-03-05T15:44:21.890Z,8.90
2023-03-05T15:45:53.662Z,4.50
2023-03-05T15:47:25.453Z,5.20
2023-03-05T15:48:57.220Z,7.93
2023-03-05T15:50:29.135Z,5.33
2023-03-05T15:52:00.964Z,8.20
2023-03-05T15:53:32.661Z,5.40
2023-03-05T16:05:11.492Z,14.33
2023-03-05T16:06:45.494Z,10.37
2023-03-05T16:08:17.245Z,7.57
2023-03-05T16:09:50.909Z,7.77
2023-03-05T16:11:22.872Z,6.90
2023-03-05T16:19:59.157Z,6.00
2023-03-05T16:21:31.416Z,6.23
2023-03-05T16:23:04.678Z,9.13
2023-03-05T16:24:36.473Z,7.00
2023-03-05T16:26:10.381Z,10.40
2023-03-05T16:27:42.076Z,9.80
2023-03-05T16:29:14.195Z,6.87
2023-03-05T16:30:53.319Z,5.27
2023-03-05T16:32:25.233Z,4.80
2023-03-05T16:33:57.178Z,5.23
2023-03-05T16:35:28.904Z,4.17
2023-03-05T16:37:04.187Z,7.17
2023-03-05T16:38:35.877Z,3.57
2023-03-05T16:40:09.502Z,5.33
2023-03-05T16:41:41.232Z,3.33
2023-03-05T16:43:13.080Z,3.07
2023-03-05T16:44:45.235Z,5.67
2023-03-05T16:46:17.373Z,3.07
2023-03-05T16:47:49.438Z,2.90
2023-03-05T16:49:22.538Z,3.50
2023-03-05T16:50:54.299Z,4.67
2023-03-05T16:52:26.161Z,4.87
2023-03-05T16:53:57.882Z,5.40
2023-03-05T16:55:29.572Z,5.23
2023-03-05T16:57:01.343Z,5.40
2023-03-05T16:58:34.650Z,6.60
2023-03-05T17:00:09.043Z,5.37
2023-03-05T17:01:40.846Z,11.83
2023-03-05T17:05:03.641Z,10.27
2023-03-05T17:06:35.447Z,14.07
2023-03-05T17:08:07.449Z,11.60
2023-03-05T17:09:39.409Z,7.07
2023-03-05T17:11:12.441Z,9.80
2023-03-05T17:12:44.248Z,7.17
2023-03-05T17:14:15.946Z,6.63
2023-03-05T17:15:47.630Z,7.33
2023-03-05T17:17:19.800Z,9.27
2023-03-05T17:18:51.538Z,11.50
2023-03-05T17:20:23.300Z,10.10
2023-03-05T17:21:54.989Z,12.57
2023-03-05T17:23:26.809Z,11.47
2023-03-05T17:24:58.592Z,12.50
2023-03-05T17:26:32.709Z,13.90
2023-03-05T17:28:04.669Z,13.33
2023-03-05T17:29:36.399Z,11.30
2023-03-05T17:31:08.498Z,12.73
2023-03-05T17:32:41.379Z,8.07
2023-03-05T17:34:13.205Z,8.53
2023-03-05T17:35:47.962Z,13.47
2023-03-05T17:37:19.719Z,14.10
2023-03-05T17:38:52.871Z,12.17
2023-03-05T17:40:25.277Z,11.30
2023-03-05T17:41:56.934Z,13.53
2023-03-05T17:43:28.681Z,12.60
2023-03-05T17:45:00.415Z,14.53
2023-03-05T17:46:32.247Z,14.80
2023-03-05T17:48:04.137Z,14.60
2023-03-05T17:49:35.852Z,17.60
2023-03-05T17:51:09.886Z,10.33
2023-03-05T17:52:41.873Z,12.37
2023-03-05T17:54:13.649Z,12.60
2023-03-05T17:55:45.348Z,16.73
2023-03-05T17:57:17.100Z,17.17
2023-03-05T17:58:49.539Z,17.87
2023-03-05T18:00:27.237Z,15.17
2023-03-05T18:01:59.036Z,13.63
2023-03-05T18:03:31.003Z,12.20
2023-03-05T18:05:04.161Z,11.23
2023-03-05T18:06:36.048Z,17.60
2023-03-05T18:08:07.950Z,20.50
2023-03-05T18:09:39.712Z,16.60
2023-03-05T18:11:11.512Z,14.83
2023-03-05T18:12:43.422Z,15.17
2023-03-05T18:14:16.924Z,9.20
2023-03-05T18:15:49.060Z,7.03
2023-03-05T18:17:22.651Z,6.37
2023-03-05T18:18:54.599Z,5.93
2023-03-05T18:20:32.053Z,4.70
2023-03-05T18:22:03.807Z,4.90
2023-03-05T18:23:36.344Z,5.30
2023-03-05T18:25:10.300Z,8.90
2023-03-05T18:26:41.981Z,12.43
2023-03-05T18:28:15.155Z,9.57
2023-03-05T18:29:46.871Z,7.37
2023-03-05T18:31:18.931Z,6.83
2023-03-05T18:32:51.276Z,7.57
2023-03-05T18:34:24.877Z,10.03
2023-03-05T18:35:57.633Z,10.07
2023-03-05T18:37:30.696Z,10.23
2023-03-05T18:39:02.549Z,8.20
2023-03-05T18:40:35.923Z,6.17
2023-03-05T18:42:12.379Z,5.97
2023-03-05T18:43:44.116Z,6.10
2023-03-05T18:45:17.712Z,5.17
2023-03-05T18:46:49.489Z,6.63
2023-03-05T18:48:21.320Z,10.07
2023-03-05T18:49:53.731Z,10.00
2023-03-05T18:51:27.160Z,7.63
2023-03-05T18:52:58.968Z,6.03
2023-03-05T18:54:32.431Z,9.80
2023-03-05T18:56:04.450Z,6.77
2023-03-05T18:57:36.194Z,6.97
2023-03-05T18:59:07.949Z,7.60
2023-03-05T19:00:41.047Z,5.13
2023-03-05T19:02:17.018Z,6.33
2023-03-05T19:03:51.774Z,6.07
2023-03-05T19:05:27.053Z,5.63
2023-03-05T19:06:58.855Z,6.83
2023-03-05T19:08:30.561Z,6.90
2023-03-05T19:10:07.128Z,8.47
2023-03-05T19:11:38.890Z,7.30
2023-03-05T19:13:34.882Z,12.40
2023-03-05T19:15:07.281Z,10.50
2023-03-05T19:16:43.829Z,6.97
2023-03-05T19:18:20.414Z,6.00
2023-03-05T19:19:53.441Z,8.40
2023-03-05T19:21:25.236Z,6.20
2023-03-05T19:22:56.982Z,6.50
2023-03-05T19:24:30.406Z,7.33
2023-03-05T19:26:03.043Z,7.03
2023-03-05T19:27:35.650Z,7.90
2023-03-05T19:29:08.482Z,7.67
2023-03-05T19:30:40.233Z,7.43
2023-03-05T19:32:14.471Z,13.53
2023-03-05T19:33:46.213Z,12.63
2023-03-05T19:35:18.560Z,32.73
2023-03-05T19:36:50.342Z,29.63
2023-03-05T19:38:22.153Z,14.50
2023-03-05T19:39:54.054Z,17.87
2023-03-05T19:41:27.558Z,13.03
2023-03-05T19:42:59.353Z,13.87
2023-03-05T19:44:31.651Z,10.13
2023-03-05T19:46:05.360Z,6.00
2023-03-05T19:47:37.315Z,10.17
2023-03-05T19:49:09.399Z,7.33
2023-03-05T19:50:41.126Z,6.07
2023-03-05T19:52:13.942Z,7.03
2023-03-05T19:53:46.399Z,5.67
2023-03-05T19:55:18.321Z,4.87
2023-03-05T19:56:53.524Z,4.87
2023-03-05T19:58:25.347Z,4.50
2023-03-05T19:59:57.098Z,4.93
2023-03-05T20:01:28.958Z,6.00
2023-03-05T20:03:00.680Z,3.67
2023-03-05T20:04:32.383Z,3.87
2023-03-05T20:06:05.982Z,6.10
2023-03-05T20:07:37.808Z,3.13
2023-03-05T20:09:09.973Z,3.93
2023-03-05T20:10:41.666Z,7.27
2023-03-05T20:12:13.367Z,3.53
2023-03-05T20:13:45.349Z,3.27
2023-03-05T20:15:18.243Z,4.03
2023-03-05T20:16:49.952Z,3.20
2023-03-05T20:18:21.658Z,2.40
2023-03-05T20:19:55.356Z,5.40
2023-03-05T20:21:30.782Z,3.50
2023-03-05T20:23:02.624Z,3.70
2023-03-05T20:24:35.250Z,3.60
2023-03-05T20:26:07.010Z,4.00
2023-03-05T20:27:39.691Z,8.00
2023-03-05T20:29:12.273Z,4.63
2023-03-05T20:30:44.044Z,3.40
2023-03-05T20:32:15.864Z,4.93
2023-03-05T20:33:47.703Z,5.23
2023-03-05T20:35:19.562Z,5.07
2023-03-05T20:36:51.299Z,4.00
2023-03-05T20:38:30.314Z,4.20
2023-03-05T20:40:02.063Z,3.87
2023-03-05T20:41:35.733Z,4.90
2023-03-05T20:43:07.504Z,4.47
2023-03-05T20:44:39.207Z,4.93
2023-03-05T20:46:24.033Z,4.97
2023-03-05T20:47:55.780Z,4.07
2023-03-05T20:49:27.486Z,4.47
2023-03-05T20:51:09.840Z,5.00
2023-03-05T20:52:41.593Z,7.70
2023-03-05T20:54:15.299Z,5.00
2023-03-05T20:55:47.162Z,5.60
2023-03-05T20:57:18.854Z,6.50
2023-03-05T20:58:50.930Z,6.50
2023-03-05T21:00:23.710Z,4.57
2023-03-05T21:01:55.388Z,4.30
2023-03-05T21:03:27.169Z,4.83
2023-03-05T21:04:58.875Z,5.83
2023-03-05T21:06:32.276Z,6.93
2023-03-05T21:08:05.023Z,5.03
2023-03-05T21:09:36.758Z,6.17
2023-03-05T21:11:09.551Z,6.00
2023-03-05T21:12:41.273Z,5.50
2023-03-05T21:14:12.997Z,6.03
2023-03-05T21:15:44.721Z,6.83
2023-03-05T21:17:17.946Z,5.67
2023-03-05T21:18:51.008Z,6.17
2023-03-05T21:20:28.336Z,5.90
2023-03-05T21:22:00.266Z,6.73
2023-03-05T21:23:32.795Z,7.90
2023-03-05T21:25:31.956Z,6.60
2023-03-05T21:27:03.690Z,5.40
2023-03-05T21:28:35.774Z,6.47
2023-03-05T21:30:08.650Z,6.80
2023-03-05T21:31:40.464Z,9.13
2023-03-05T21:33:27.257Z,11.83
2023-03-05T21:35:00.421Z,6.63
2023-03-05T21:36:32.236Z,6.50
2023-03-05T21:38:06.097Z,9.70
2023-03-05T21:39:37.898Z,6.60
2023-03-05T21:41:10.333Z,7.23
2023-03-05T21:42:42.422Z,9.43
2023-03-05T21:44:17.504Z,7.90
2023-03-05T21:45:52.568Z,5.77
2023-03-05T21:47:24.304Z,8.07
2023-03-05T21:48:55.989Z,9.60
2023-03-05T21:50:27.733Z,9.53
2023-03-05T21:52:12.189Z,7.10
2023-03-05T21:53:43.982Z,6.93
2023-03-05T21:55:19.066Z,6.70
2023-03-05T21:56:50.746Z,6.93
2023-03-05T21:58:22.510Z,7.67
2023-03-05T21:59:54.275Z,9.60
2023-03-05T22:01:26.138Z,6.83
2023-03-05T22:02:57.889Z,8.70
2023-03-05T22:04:29.605Z,7.20
2023-03-05T22:06:01.357Z,7.50
2023-03-05T22:07:33.267Z,6.03
2023-03-05T22:09:05.382Z,6.47
2023-03-05T22:10:37.118Z,5.90
2023-03-05T22:12:45.655Z,6.30
2023-03-05T22:14:33.959Z,9.30
2023-03-05T22:16:06.694Z,5.57
2023-03-05T22:17:38.391Z,5.63
2023-03-05T22:19:10.718Z,7.40
2023-03-05T22:20:42.970Z,6.20
2023-03-05T22:22:14.625Z,8.13
2023-03-05T22:23:46.894Z,5.70
2023-03-05T22:25:18.784Z,6.57
2023-03-05T22:26:50.951Z,5.70
2023-03-05T22:28:22.878Z,4.77
2023-03-05T22:29:54.564Z,5.47
2023-03-05T22:31:27.653Z,5.40
2023-03-05T22:33:01.195Z,5.57
2023-03-05T22:34:37.431Z,5.10
2023-03-05T22:36:10.931Z,6.27
2023-03-05T22:37:43.686Z,6.70
2023-03-05T22:39:15.406Z,6.37
2023-03-05T22:40:48.891Z,5.67
2023-03-05T22:42:20.659Z,4.40
2023-03-05T22:43:52.440Z,4.47
2023-03-05T22:45:24.130Z,5.37
2023-03-05T22:46:55.903Z,3.60
2023-03-05T22:48:27.567Z,7.23
2023-03-05T22:50:00.612Z,4.17
2023-03-05T22:51:32.994Z,5.00
2023-03-05T22:53:04.821Z,8.00
2023-03-05T22:54:36.774Z,5.03
2023-03-05T22:56:14.220Z,5.43
2023-03-05T22:57:45.972Z,5.07
2023-03-05T22:59:17.651Z,6.40
2023-03-05T23:00:49.323Z,7.03
2023-03-05T23:02:21.036Z,7.73
2023-03-05T23:04:54.747Z,3.93
2023-03-05T23:06:26.502Z,5.50
2023-03-05T23:07:58.280Z,6.10
2023-03-05T23:09:29.996Z,6.63
2023-03-05T23:11:08.486Z,6.10
2023-03-05T23:12:46.198Z,6.77
2023-03-05T23:14:17.954Z,7.20
2023-03-05T23:15:49.705Z,5.10
2023-03-05T23:17:21.476Z,5.03
2023-03-05T23:18:54.317Z,6.57
2023-03-05T23:20:29.413Z,4.57
2023-03-05T23:22:01.101Z,4.43
2023-03-05T23:23:32.811Z,6.77
2023-03-05T23:25:05.140Z,5.40
2023-03-05T23:26:36.879Z,4.33
2023-03-05T23:28:08.634Z,7.40
2023-03-05T23:30:19.387Z,4.47
2023-03-05T23:31:54.608Z,6.17
2023-03-05T23:33:26.359Z,6.20
2023-03-05T23:34:58.124Z,4.97
2023-03-05T23:36:29.859Z,4.53
2023-03-05T23:38:04.240Z,5.73
2023-03-05T23:39:35.947Z,4.30
2023-03-05T23:41:09.348Z,6.33
2023-03-05T23:42:41.826Z,4.70
2023-03-05T23:44:13.534Z,5.17
2023-03-05T23:45:50.276Z,4.77
2023-03-05T23:47:22.046Z,7.70
2023-03-05T23:48:53.789Z,7.67
2023-03-05T23:50:31.241Z,5.30
2023-03-05T23:52:03.022Z,5.10
2023-03-05T23:53:35.038Z,7.47
2023-03-05T23:55:07.189Z,4.77
2023-03-05T23:56:38.862Z,5.77
2023-03-05T23:58:11.658Z,7.43
2023-03-05T23:59:43.404Z,5.80
